createdAt,value
2019-04-27T00:00:45.628Z,2.40
2019-04-27T00:03:36.514Z,2.63
2019-04-27T00:06:13.536Z,2.70
2019-04-27T00:09:03.563Z,3.40
2019-04-27T00:11:42.175Z,3.00
2019-04-27T00:14:15.012Z,3.40
2019-04-27T00:17:03.832Z,3.20
2019-04-27T00:19:51.520Z,3.47
2019-04-27T00:22:23.792Z,3.90
2019-04-27T00:24:54.277Z,4.30
2019-04-27T00:27:24.935Z,4.13
2019-04-27T00:29:55.597Z,4.53
2019-04-27T00:32:26.451Z,4.23
2019-04-27T00:34:57.055Z,4.47
2019-04-27T00:37:46.715Z,4.20
2019-04-27T00:40:18.971Z,4.70
2019-04-27T00:42:49.607Z,5.10
2019-04-27T00:45:20.365Z,4.50
2019-04-27T00:47:58.719Z,4.30
2019-04-27T00:50:23.550Z,5.03
2019-04-27T00:52:59.262Z,4.90
2019-04-27T00:55:43.828Z,5.20
2019-04-27T00:58:33.043Z,5.10
2019-04-27T01:01:08.139Z,5.17
2019-04-27T01:03:47.233Z,5.20
2019-04-27T01:06:18.089Z,5.00
2019-04-27T01:08:48.865Z,5.33
2019-04-27T01:11:19.559Z,5.20
2019-04-27T01:13:50.174Z,5.17
2019-04-27T01:16:22.439Z,5.23
2019-04-27T01:18:53.018Z,4.87
2019-04-27T01:21:23.612Z,4.93
2019-04-27T01:23:54.248Z,4.83
2019-04-27T01:26:33.602Z,4.90
2019-04-27T01:29:10.306Z,5.00
2019-04-27T01:31:44.323Z,5.10
2019-04-27T01:34:14.893Z,4.80
2019-04-27T01:36:45.556Z,5.03
2019-04-27T01:39:18.853Z,5.03
2019-04-27T01:41:49.730Z,4.47
2019-04-27T01:44:20.399Z,5.17
2019-04-27T01:46:51.053Z,4.97
2019-04-27T01:49:30.874Z,4.80
2019-04-27T01:52:07.381Z,5.00
2019-04-27T01:54:39.254Z,4.40
2019-04-27T01:57:10.566Z,5.07
2019-04-27T01:59:41.198Z,4.43
2019-04-27T02:02:25.222Z,4.50
2019-04-27T02:05:13.709Z,4.67
2019-04-27T02:07:45.453Z,4.67
2019-04-27T02:10:21.468Z,4.10
2019-04-27T02:12:52.051Z,4.40
2019-04-27T02:15:36.883Z,4.50
2019-04-27T02:18:09.333Z,4.73
2019-04-27T02:20:49.036Z,4.63
2019-04-27T02:23:19.444Z,4.60
2019-04-27T02:25:50.138Z,4.87
2019-04-27T02:28:30.386Z,4.60
2019-04-27T02:31:11.968Z,4.33
2019-04-27T02:33:44.212Z,4.37
2019-04-27T02:36:20.189Z,4.47
2019-04-27T02:38:53.122Z,4.13
2019-04-27T02:41:30.285Z,3.90
2019-04-27T02:44:02.501Z,4.00
2019-04-27T02:46:34.154Z,4.13
2019-04-27T02:49:07.203Z,3.83
2019-04-27T02:51:55.564Z,3.90
2019-04-27T02:54:26.159Z,4.00
2019-04-27T02:56:59.217Z,4.13
2019-04-27T02:59:30.352Z,3.97
2019-04-27T03:02:02.738Z,4.00
2019-04-27T03:04:33.469Z,4.10
2019-04-27T03:07:04.198Z,4.27
2019-04-27T03:09:40.606Z,3.50
2019-04-27T03:12:11.453Z,3.80
2019-04-27T03:14:50.603Z,3.80
2019-04-27T03:17:39.716Z,3.87
2019-04-27T03:20:15.155Z,3.47
2019-04-27T03:22:49.443Z,4.00
2019-04-27T03:25:21.665Z,3.77
2019-04-27T03:27:54.169Z,3.60
2019-04-27T03:30:25.090Z,3.50
2019-04-27T03:33:02.865Z,3.87
2019-04-27T03:35:42.976Z,3.73
2019-04-27T03:38:13.078Z,3.63
2019-04-27T03:40:43.664Z,4.00
2019-04-27T03:43:15.871Z,3.60
2019-04-27T03:45:46.635Z,3.50
2019-04-27T03:48:17.318Z,3.80
2019-04-27T03:50:52.309Z,4.20
2019-04-27T03:53:39.736Z,3.50
2019-04-27T03:56:21.928Z,3.60
2019-04-27T03:58:59.805Z,4.23
2019-04-27T04:01:31.555Z,3.57
2019-04-27T04:04:03.263Z,3.97
2019-04-27T04:06:49.494Z,3.33
2019-04-27T04:09:22.857Z,3.60
2019-04-27T04:12:02.257Z,3.63
2019-04-27T04:14:36.827Z,3.73
2019-04-27T04:17:09.852Z,3.37
2019-04-27T04:19:53.927Z,3.40
2019-04-27T04:22:17.041Z,4.13
2019-04-27T04:24:47.754Z,3.20
2019-04-27T04:27:26.138Z,3.27
2019-04-27T04:29:59.397Z,3.43
2019-04-27T04:32:30.373Z,3.00
2019-04-27T04:35:21.220Z,3.00
2019-04-27T04:37:53.046Z,3.27
2019-04-27T04:40:25.352Z,2.80
2019-04-27T04:43:03.275Z,2.90
2019-04-27T04:45:40.858Z,3.13
2019-04-27T04:48:13.124Z,3.57
2019-04-27T04:50:50.014Z,3.10
2019-04-27T04:53:20.833Z,3.10
2019-04-27T04:55:51.613Z,3.40
2019-04-27T04:58:22.291Z,3.33
2019-04-27T05:00:52.780Z,3.00
2019-04-27T05:03:23.442Z,3.03
2019-04-27T05:05:54.103Z,3.53
2019-04-27T05:08:24.644Z,3.43
2019-04-27T05:10:59.513Z,3.50
2019-04-27T05:13:35.014Z,3.50
2019-04-27T05:16:05.594Z,3.53
2019-04-27T05:18:36.253Z,3.67
2019-04-27T05:21:14.532Z,3.03
2019-04-27T05:23:49.296Z,3.27
2019-04-27T05:26:20.817Z,3.20
2019-04-27T05:28:51.655Z,3.30
2019-04-27T05:31:22.214Z,3.43
2019-04-27T05:33:52.884Z,2.93
2019-04-27T05:36:29.659Z,2.70
2019-04-27T05:39:18.169Z,3.30
2019-04-27T05:41:49.801Z,3.90
2019-04-27T05:44:25.065Z,3.50
2019-04-27T05:46:58.767Z,3.17
2019-04-27T05:49:44.108Z,3.10
2019-04-27T05:52:29.431Z,3.40
2019-04-27T05:55:01.154Z,3.40
2019-04-27T05:57:41.459Z,2.90
2019-04-27T06:00:15.503Z,3.20
2019-04-27T06:02:46.185Z,3.73
2019-04-27T06:05:18.873Z,3.00
2019-04-27T06:07:51.229Z,3.53
2019-04-27T06:10:21.900Z,3.10
2019-04-27T06:12:54.794Z,3.47
2019-04-27T06:15:25.413Z,3.40
2019-04-27T06:17:57.002Z,3.40
2019-04-27T06:20:28.579Z,3.50
2019-04-27T06:23:01.352Z,3.60
2019-04-27T06:25:32.077Z,4.37
2019-04-27T06:28:02.782Z,3.57
2019-04-27T06:30:33.444Z,4.87
2019-04-27T06:33:04.161Z,3.73
2019-04-27T06:35:34.724Z,4.00
2019-04-27T06:38:05.426Z,4.00
2019-04-27T06:40:36.116Z,3.50
2019-04-27T06:43:08.512Z,4.30
2019-04-27T06:45:41.231Z,4.03
2019-04-27T06:48:11.872Z,4.30
2019-04-27T06:50:42.653Z,5.13
2019-04-27T06:53:13.375Z,4.17
2019-04-27T06:55:58.594Z,4.37
2019-04-27T06:58:29.374Z,4.70
2019-04-27T07:01:00.056Z,4.77
2019-04-27T07:03:36.257Z,4.57
2019-04-27T07:06:08.720Z,4.93
2019-04-27T07:08:40.484Z,5.20
2019-04-27T07:11:19.811Z,5.17
2019-04-27T07:13:51.721Z,5.63
2019-04-27T07:16:22.428Z,5.40
2019-04-27T07:18:59.321Z,5.53
2019-04-27T07:21:31.171Z,5.43
2019-04-27T07:24:01.781Z,5.60
2019-04-27T07:26:32.524Z,5.43
2019-04-27T07:29:05.166Z,5.67
2019-04-27T07:31:49.796Z,6.07
2019-04-27T07:34:21.405Z,5.83
2019-04-27T07:36:52.165Z,5.90
2019-04-27T07:39:22.849Z,6.43
2019-04-27T07:41:59.497Z,6.20
2019-04-27T07:44:35.510Z,5.80
2019-04-27T07:47:19.733Z,6.13
2019-04-27T07:49:56.605Z,6.37
2019-04-27T07:52:41.414Z,6.53
2019-04-27T07:55:14.004Z,6.70
2019-04-27T07:57:46.762Z,7.03
2019-04-27T08:00:19.048Z,6.80
2019-04-27T08:02:49.670Z,6.60
2019-04-27T08:05:20.391Z,6.53
2019-04-27T08:07:51.238Z,7.13
2019-04-27T08:10:24.039Z,6.90
2019-04-27T08:12:54.744Z,6.77
2019-04-27T08:15:25.373Z,7.50
2019-04-27T08:17:56.091Z,6.43
2019-04-27T08:20:29.409Z,7.50
2019-04-27T08:23:01.364Z,6.67
2019-04-27T08:25:33.143Z,7.30
2019-04-27T08:28:05.472Z,7.10
2019-04-27T08:30:46.678Z,6.83
2019-04-27T08:33:18.963Z,6.83
2019-04-27T08:35:49.729Z,6.87
2019-04-27T08:38:21.371Z,7.07
2019-04-27T08:40:52.067Z,7.80
2019-04-27T08:43:23.659Z,8.53
2019-04-27T08:45:55.300Z,7.77
2019-04-27T08:48:34.713Z,8.00
2019-04-27T08:51:02.358Z,8.47
2019-04-27T08:53:40.315Z,6.70
2019-04-27T08:56:13.215Z,6.63
2019-04-27T08:58:43.900Z,7.17
2019-04-27T09:01:18.336Z,8.43
2019-04-27T09:03:49.560Z,8.07
2019-04-27T09:06:25.754Z,7.50
2019-04-27T09:08:59.385Z,8.07
2019-04-27T09:11:39.122Z,7.83
2019-04-27T09:14:21.566Z,7.57
2019-04-27T09:17:02.945Z,7.60
2019-04-27T09:19:52.334Z,7.70
2019-04-27T09:22:25.181Z,8.87
2019-04-27T09:25:05.538Z,9.13
2019-04-27T09:27:39.464Z,8.80
2019-04-27T09:30:13.540Z,8.87
2019-04-27T09:32:49.440Z,9.33
2019-04-27T09:35:22.380Z,9.03
2019-04-27T09:37:56.293Z,8.97
2019-04-27T09:40:33.498Z,7.83
2019-04-27T09:43:04.222Z,3.00
2019-04-27T09:45:37.810Z,6.20
2019-04-27T09:48:08.999Z,2.57
2019-04-27T09:50:39.688Z,3.10
2019-04-27T09:53:12.755Z,3.00
2019-04-27T09:55:44.480Z,2.80
2019-04-27T09:58:16.026Z,3.13
2019-04-27T10:00:49.579Z,3.13
2019-04-27T10:03:24.193Z,2.70
2019-04-27T10:05:57.184Z,2.60
2019-04-27T10:08:28.921Z,2.53
2019-04-27T10:10:59.602Z,3.00
2019-04-27T10:13:31.238Z,2.20
2019-04-27T10:16:01.945Z,2.90
2019-04-27T10:18:32.596Z,2.37
2019-04-27T10:21:03.337Z,2.60
2019-04-27T10:23:34.012Z,2.13
2019-04-27T10:26:05.838Z,2.47
2019-04-27T10:28:37.276Z,2.87
2019-04-27T10:31:08.041Z,2.30
2019-04-27T10:33:41.971Z,2.20
2019-04-27T10:36:13.662Z,2.60
2019-04-27T10:38:55.603Z,3.40
2019-04-27T10:41:26.360Z,2.93
2019-04-27T10:44:01.110Z,2.60
2019-04-27T10:46:31.859Z,2.67
2019-04-27T10:49:05.971Z,2.50
2019-04-27T10:51:41.840Z,2.70
2019-04-27T10:54:12.548Z,2.20
2019-04-27T10:56:43.215Z,2.70
2019-04-27T10:59:13.800Z,2.53
2019-04-27T11:01:45.934Z,2.17
2019-04-27T11:04:18.563Z,2.00
2019-04-27T11:07:07.212Z,2.13
2019-04-27T11:09:39.053Z,2.33
2019-04-27T11:12:09.775Z,2.30
2019-04-27T11:14:46.451Z,2.10
2019-04-27T11:17:23.689Z,2.10
2019-04-27T11:19:54.289Z,2.70
2019-04-27T11:22:26.039Z,2.43
2019-04-27T11:24:56.786Z,3.00
2019-04-27T11:27:27.555Z,2.57
2019-04-27T11:29:58.147Z,3.00
2019-04-27T11:32:36.269Z,2.50
2019-04-27T11:35:18.014Z,2.90
2019-04-27T11:37:50.357Z,2.67
2019-04-27T11:40:22.669Z,2.60
2019-04-27T11:42:58.663Z,2.50
2019-04-27T11:45:29.316Z,2.10
2019-04-27T11:47:59.946Z,1.50
2019-04-27T11:50:30.496Z,1.57
2019-04-27T11:53:01.197Z,1.83
2019-04-27T11:55:32.925Z,1.73
2019-04-27T11:58:30.348Z,1.80
2019-04-27T12:01:01.972Z,1.60
2019-04-27T12:03:32.620Z,1.90
2019-04-27T12:06:03.277Z,1.80
2019-04-27T12:08:45.677Z,2.07
2019-04-27T12:11:17.192Z,1.90
2019-04-27T12:13:48.033Z,1.57
2019-04-27T12:16:21.112Z,1.50
2019-04-27T12:18:52.861Z,3.37
2019-04-27T12:21:24.540Z,1.97
2019-04-27T12:23:55.247Z,3.17
2019-04-27T12:26:30.322Z,3.40
2019-04-27T12:29:06.243Z,3.87
2019-04-27T12:31:44.874Z,2.63
2019-04-27T12:34:16.919Z,2.60
2019-04-27T12:36:48.616Z,2.17
2019-04-27T12:39:19.208Z,1.83
2019-04-27T12:41:50.012Z,2.20
2019-04-27T12:44:21.625Z,2.40
2019-04-27T12:46:52.178Z,1.90
2019-04-27T12:49:22.687Z,2.30
2019-04-27T12:51:53.358Z,1.93
2019-04-27T12:54:26.608Z,1.90
2019-04-27T12:57:06.058Z,1.90
2019-04-27T12:59:56.622Z,2.10
2019-04-27T13:02:29.115Z,2.60
2019-04-27T13:05:02.010Z,2.07
2019-04-27T13:07:32.633Z,2.07
2019-04-27T13:10:03.465Z,2.20
2019-04-27T13:12:35.763Z,2.33
2019-04-27T13:15:08.021Z,2.40
2019-04-27T13:17:38.652Z,2.10
2019-04-27T13:20:09.600Z,2.13
2019-04-27T13:22:40.173Z,2.47
2019-04-27T13:25:10.887Z,2.70
2019-04-27T13:27:41.573Z,2.93
2019-04-27T13:30:12.760Z,2.80
2019-04-27T13:32:43.412Z,2.30
2019-04-27T13:35:15.829Z,2.63
2019-04-27T13:37:52.970Z,2.97
2019-04-27T13:40:23.700Z,2.83
2019-04-27T13:42:57.543Z,3.23
2019-04-27T13:45:53.072Z,3.43
2019-04-27T13:48:26.071Z,2.90
2019-04-27T13:51:02.346Z,2.80
2019-04-27T13:53:32.944Z,2.93
2019-04-27T13:56:09.692Z,3.00
2019-04-27T13:59:03.353Z,2.73
2019-04-27T14:01:34.701Z,2.80
2019-04-27T14:04:07.627Z,2.83
2019-04-27T14:06:38.352Z,2.83
2019-04-27T14:09:09.333Z,2.97
2019-04-27T14:11:41.959Z,2.80
2019-04-27T14:14:12.698Z,2.00
2019-04-27T14:16:46.860Z,2.30
2019-04-27T14:19:18.929Z,2.37
2019-04-27T14:21:56.219Z,2.33
2019-04-27T14:24:31.890Z,2.20
2019-04-27T14:27:11.082Z,2.60
2019-04-27T14:29:41.770Z,1.70
2019-04-27T14:32:12.758Z,1.77
2019-04-27T14:34:54.530Z,1.97
2019-04-27T14:37:29.717Z,1.97
2019-04-27T14:40:01.536Z,2.37
2019-04-27T14:42:39.888Z,1.93
2019-04-27T14:45:15.174Z,2.10
2019-04-27T14:47:46.129Z,2.20
2019-04-27T14:50:19.946Z,2.33
2019-04-27T14:52:55.965Z,2.20
2019-04-27T14:55:30.103Z,1.87
2019-04-27T14:58:02.504Z,2.00
2019-04-27T15:00:33.402Z,1.87
2019-04-27T15:03:06.489Z,2.80
2019-04-27T15:05:37.490Z,1.70
2019-04-27T15:08:13.890Z,2.37
2019-04-27T15:10:46.427Z,1.77
2019-04-27T15:13:18.773Z,2.13
2019-04-27T15:15:49.967Z,2.40
2019-04-27T15:18:29.646Z,2.00
2019-04-27T15:21:04.555Z,1.70
2019-04-27T15:23:35.307Z,1.57
2019-04-27T15:26:08.217Z,1.80
2019-04-27T15:28:49.392Z,1.60
2019-04-27T15:31:35.588Z,1.60
2019-04-27T15:34:27.629Z,1.97
2019-04-27T15:37:05.384Z,1.63
2019-04-27T15:39:58.297Z,1.90
2019-04-27T15:42:31.972Z,2.13
2019-04-27T15:45:03.836Z,1.97
2019-04-27T15:47:38.322Z,2.30
2019-04-27T15:50:23.472Z,3.00
2019-04-27T15:53:02.813Z,2.10
2019-04-27T15:55:36.984Z,2.03
2019-04-27T15:58:09.757Z,2.20
2019-04-27T16:00:56.208Z,2.87
2019-04-27T16:03:27.208Z,2.90
2019-04-27T16:05:55.648Z,3.07
2019-04-27T16:08:28.664Z,2.73
2019-04-27T16:11:02.500Z,2.97
2019-04-27T16:13:38.251Z,2.67
2019-04-27T16:16:11.097Z,3.63
2019-04-27T16:18:41.878Z,3.20
2019-04-27T16:21:12.575Z,3.97
2019-04-27T16:23:48.136Z,4.30
2019-04-27T16:26:20.818Z,4.27
2019-04-27T16:28:53.362Z,5.17
2019-04-27T16:31:31.490Z,4.50
2019-04-27T16:34:01.603Z,4.93
2019-04-27T16:36:32.067Z,4.43
2019-04-27T16:39:08.384Z,4.10
2019-04-27T16:41:41.973Z,4.13
2019-04-27T16:44:11.931Z,3.57
2019-04-27T16:46:43.269Z,2.77
2019-04-27T16:49:18.799Z,3.40
2019-04-27T16:51:53.325Z,3.17
2019-04-27T16:54:32.509Z,3.13
2019-04-27T16:57:21.140Z,3.37
2019-04-27T16:59:57.525Z,2.90
2019-04-27T17:02:45.784Z,2.33
2019-04-27T17:05:17.870Z,2.30
2019-04-27T17:07:55.558Z,2.97
2019-04-27T17:10:30.863Z,2.63
2019-04-27T17:13:01.561Z,2.90
2019-04-27T17:15:53.626Z,2.30
2019-04-27T17:18:25.528Z,2.50
2019-04-27T17:21:02.777Z,2.50
2019-04-27T17:23:35.016Z,2.70
2019-04-27T17:26:20.627Z,2.40
2019-04-27T17:28:48.548Z,2.67
2019-04-27T17:31:21.689Z,3.20
2019-04-27T17:33:58.643Z,2.93
2019-04-27T17:36:34.344Z,3.00
2019-04-27T17:39:08.529Z,3.10
2019-04-27T17:41:49.173Z,3.13
2019-04-27T17:44:19.303Z,2.83
2019-04-27T17:46:51.152Z,3.37
2019-04-27T17:49:21.147Z,4.10
2019-04-27T17:51:58.529Z,4.50
2019-04-27T17:54:47.468Z,4.67
2019-04-27T17:57:17.899Z,4.93
2019-04-27T17:59:58.371Z,4.87
2019-04-27T18:02:23.322Z,5.03
2019-04-27T18:04:54.048Z,5.37
2019-04-27T18:07:27.735Z,5.43
2019-04-27T18:10:22.813Z,6.43
2019-04-27T18:12:48.586Z,6.73
2019-04-27T18:15:20.413Z,6.80
2019-04-27T18:17:54.858Z,7.00
2019-04-27T18:20:28.937Z,7.60
2019-04-27T18:23:02.386Z,6.77
2019-04-27T18:25:35.620Z,6.30
2019-04-27T18:28:31.838Z,5.87
2019-04-27T18:31:04.183Z,5.53
2019-04-27T18:33:37.248Z,5.53
2019-04-27T18:36:14.232Z,5.20
2019-04-27T18:38:45.060Z,5.23
2019-04-27T18:41:20.191Z,5.23
2019-04-27T18:43:55.199Z,5.50
2019-04-27T18:46:25.138Z,4.87
2019-04-27T18:49:00.704Z,4.97
2019-04-27T18:51:52.630Z,5.00
2019-04-27T18:54:23.651Z,5.20
2019-04-27T18:57:04.122Z,5.27
2019-04-27T18:59:31.902Z,4.70
2019-04-27T19:02:12.038Z,5.30
2019-04-27T19:04:50.199Z,4.47
2019-04-27T19:07:20.891Z,4.13
2019-04-27T19:09:59.612Z,3.80
2019-04-27T19:12:30.312Z,4.07
2019-04-27T19:15:01.908Z,4.37
2019-04-27T19:17:33.596Z,3.90
2019-04-27T19:20:04.686Z,4.73
2019-04-27T19:22:41.409Z,3.50
2019-04-27T19:25:33.827Z,4.20
2019-04-27T19:28:18.635Z,4.60
2019-04-27T19:31:09.349Z,4.20
2019-04-27T19:33:40.970Z,4.17
2019-04-27T19:36:15.228Z,4.30
2019-04-27T19:38:58.369Z,3.13
2019-04-27T19:41:38.182Z,3.93
2019-04-27T19:44:10.235Z,3.43
2019-04-27T19:46:41.005Z,3.30
2019-04-27T19:49:13.009Z,3.20
2019-04-27T19:51:54.075Z,3.23
2019-04-27T19:54:30.284Z,3.40
2019-04-27T19:57:01.079Z,4.40
2019-04-27T19:59:40.638Z,4.90
2019-04-27T20:02:20.618Z,4.13
2019-04-27T20:04:55.106Z,4.20
2019-04-27T20:07:28.614Z,4.70
2019-04-27T20:10:02.131Z,5.13
2019-04-27T20:12:38.763Z,5.30
2019-04-27T20:15:09.708Z,4.80
2019-04-27T20:17:42.520Z,5.13
2019-04-27T20:20:16.400Z,5.33
2019-04-27T20:22:50.810Z,5.87
2019-04-27T20:25:22.170Z,5.50
2019-04-27T20:28:00.898Z,6.53
2019-04-27T20:30:32.032Z,5.87
2019-04-27T20:33:04.994Z,5.53
2019-04-27T20:35:37.929Z,6.50
2019-04-27T20:38:12.955Z,6.20
2019-04-27T20:40:43.721Z,6.30
2019-04-27T20:43:17.479Z,5.60
2019-04-27T20:46:11.859Z,5.50
2019-04-27T20:48:43.701Z,6.10
2019-04-27T20:51:43.857Z,6.10
2019-04-27T20:54:15.016Z,5.50
2019-04-27T20:56:45.627Z,5.90
2019-04-27T20:59:18.481Z,5.30
2019-04-27T21:01:51.177Z,5.90
2019-04-27T21:04:36.986Z,5.20
2019-04-27T21:07:10.961Z,5.30
2019-04-27T21:09:41.822Z,5.60
2019-04-27T21:12:18.104Z,5.00
2019-04-27T21:14:48.849Z,5.03
2019-04-27T21:17:19.550Z,5.00
2019-04-27T21:19:51.544Z,5.30
2019-04-27T21:22:26.530Z,4.87
2019-04-27T21:24:58.155Z,4.70
2019-04-27T21:27:31.802Z,4.50
2019-04-27T21:30:06.305Z,4.90
2019-04-27T21:32:37.986Z,4.63
2019-04-27T21:35:10.924Z,4.70
2019-04-27T21:37:41.617Z,4.63
2019-04-27T21:40:21.390Z,4.80
2019-04-27T21:42:56.759Z,4.23
2019-04-27T21:45:27.566Z,4.47
2019-04-27T21:48:00.897Z,3.93
2019-04-27T21:50:35.834Z,4.03
2019-04-27T21:53:08.221Z,4.70
2019-04-27T21:55:39.686Z,4.17
2019-04-27T21:58:11.621Z,3.97
2019-04-27T22:01:03.604Z,4.70
2019-04-27T22:03:36.126Z,4.03
2019-04-27T22:06:08.489Z,4.40
2019-04-27T22:08:55.744Z,3.97
2019-04-27T22:11:32.222Z,4.20
2019-04-27T22:14:05.728Z,4.60
2019-04-27T22:16:41.614Z,4.53
2019-04-27T22:19:12.637Z,4.10
2019-04-27T22:21:52.722Z,4.13
2019-04-27T22:24:42.843Z,4.10
2019-04-27T22:27:14.150Z,3.77
2019-04-27T22:29:52.738Z,3.33
2019-04-27T22:32:23.281Z,3.67
2019-04-27T22:34:54.454Z,3.43
2019-04-27T22:37:35.099Z,3.73
2019-04-27T22:40:11.511Z,3.20
2019-04-27T22:42:57.309Z,3.83
2019-04-27T22:45:29.771Z,3.93
2019-04-27T22:48:01.279Z,3.47
2019-04-27T22:50:31.941Z,3.97
2019-04-27T22:53:10.491Z,3.50
2019-04-27T22:56:11.177Z,3.37
2019-04-27T22:58:58.577Z,3.53
2019-04-27T23:01:30.123Z,3.90
2019-04-27T23:04:03.326Z,3.97
2019-04-27T23:06:36.247Z,4.00
2019-04-27T23:09:14.919Z,4.33
2019-04-27T23:11:47.015Z,4.20
2019-04-27T23:14:31.292Z,3.47
2019-04-27T23:17:15.423Z,3.83
2019-04-27T23:19:48.556Z,3.70
2019-04-27T23:22:24.448Z,4.33
2019-04-27T23:24:55.197Z,4.53
2019-04-27T23:27:26.201Z,4.10
2019-04-27T23:29:56.807Z,5.27
2019-04-27T23:32:36.394Z,4.10
2019-04-27T23:35:07.699Z,5.17
2019-04-27T23:37:38.464Z,4.00
2019-04-27T23:40:11.175Z,4.10
2019-04-27T23:43:01.713Z,3.93
2019-04-27T23:45:32.487Z,4.40
2019-04-27T23:48:25.036Z,3.93
2019-04-27T23:51:08.163Z,4.00
2019-04-27T23:53:41.683Z,4.63
2019-04-27T23:56:12.280Z,3.60
2019-04-27T23:58:42.978Z,3.90
